Time;durP1;ratioP1;P1;durP2;ratioP2;P2;SDS_P1;SDS_P2;PMS_P1;PMS_P2;Temp;Humidity;BMP_temperature;BMP_pressure;BME280_temperature;BME280_humidity;BME280_pressure;Samples;Min_cycle;Max_cycle;Signal;HPM_P1;HPM_P2
2023/04/24 00:00:37;;;;;;;10.73;5.15;;;;;;;15.63;60.07;98989.84;4469458;31;20491;-90
2023/04/24 00:03:03;;;;;;;9.20;5.37;;;;;;;15.59;60.06;98993.56;4467111;31;20115;-91
2023/04/24 00:05:28;;;;;;;9.60;4.90;;;;;;;15.59;60.06;98990.94;4471520;31;20092;-91
2023/04/24 00:07:55;;;;;;;11.48;5.20;;;;;;;15.60;60.06;98991.78;4468992;31;20166;-88
2023/04/24 00:10:20;;;;;;;8.00;5.37;;;;;;;15.59;60.06;98988.34;4475494;31;20100;-91
2023/04/24 00:12:45;;;;;;;8.27;5.22;;;;;;;15.66;60.06;98983.56;4466599;31;20135;-91
2023/04/24 00:15:11;;;;;;;8.23;4.93;;;;;;;15.76;60.07;98981.16;4471119;31;24229;-90
2023/04/24 00:17:36;;;;;;;10.07;5.47;;;;;;;15.79;60.08;98983.56;4463542;32;20151;-91
2023/04/24 00:20:04;;;;;;;11.85;5.80;;;;;;;15.71;60.07;98980.63;4484861;31;20161;-90
2023/04/24 00:22:30;;;;;;;15.82;6.12;;;;;;;15.87;60.08;98976.91;4479905;31;20111;-89
2023/04/24 00:24:56;;;;;;;8.48;5.57;;;;;;;15.88;60.08;98972.50;4487231;31;20110;-89
2023/04/24 00:27:21;;;;;;;9.25;6.10;;;;;;;16.15;60.10;98982.94;4471654;32;20449;-90
2023/04/24 00:29:47;;;;;;;9.77;5.37;;;;;;;16.05;60.08;98972.19;4463520;31;20376;-89
2023/04/24 00:32:12;;;;;;;10.18;5.30;;;;;;;16.02;60.09;98976.81;4471399;32;20126;-89
2023/04/24 00:34:37;;;;;;;7.97;5.00;;;;;;;15.99;60.08;98974.41;4484777;31;20112;-90
2023/04/24 00:37:03;;;;;;;10.00;5.70;;;;;;;16.07;60.08;98961.59;4484055;32;20077;-90
2023/04/24 00:39:28;;;;;;;12.48;5.50;;;;;;;15.95;60.08;98960.62;4470909;31;20145;-89
2023/04/24 00:41:55;;;;;;;8.05;5.28;;;;;;;15.77;60.07;98946.94;4487288;31;20410;-88
2023/04/24 00:44:20;;;;;;;7.50;5.03;;;;;;;15.90;60.07;98950.44;4485187;31;20448;-89
2023/04/24 00:46:46;;;;;;;9.82;5.30;;;;;;;15.85;60.08;98956.91;4485220;32;20172;-89
2023/04/24 00:49:12;;;;;;;8.93;5.00;;;;;;;15.83;60.07;98949.16;4485495;32;20097;-89
2023/04/24 00:51:37;;;;;;;12.70;5.12;;;;;;;16.03;60.08;98949.63;4479271;31;20216;-88
2023/04/24 00:54:03;;;;;;;10.80;4.68;;;;;;;15.91;60.07;98954.75;4474156;32;20496;-89
2023/04/24 00:56:28;;;;;;;7.45;5.20;;;;;;;15.98;60.08;98955.19;4471088;32;20549;-88
2023/04/24 00:58:53;;;;;;;8.07;4.28;;;;;;;16.17;60.09;98954.78;4467894;31;28516;-89
2023/04/24 01:01:20;;;;;;;7.85;4.95;;;;;;;16.23;60.10;98943.88;4484125;32;20468;-88
2023/04/24 01:03:46;;;;;;;10.93;4.75;;;;;;;16.19;60.09;98939.78;4484177;31;20475;-88
2023/04/24 01:06:11;;;;;;;11.52;4.55;;;;;;;16.16;60.09;98942.63;4484321;32;20109;-89
2023/04/24 01:08:37;;;;;;;8.73;5.87;;;;;;;16.19;60.09;98945.88;4471255;31;20155;-88
2023/04/24 01:11:03;;;;;;;7.10;4.87;;;;;;;16.36;60.10;98934.22;4479292;31;20127;-89
2023/04/24 01:13:28;;;;;;;13.65;5.53;;;;;;;16.15;60.08;98938.31;4487994;31;20113;-87
2023/04/24 01:15:54;;;;;;;9.18;5.45;;;;;;;16.14;60.08;98939.25;4488423;32;20060;-88
2023/04/24 01:18:21;;;;;;;13.90;6.30;;;;;;;16.29;60.09;98940.81;4478866;32;20414;-88
2023/04/24 01:20:46;;;;;;;9.05;5.32;;;;;;;16.28;60.09;98920.75;4486649;32;20096;-88
2023/04/24 01:23:12;;;;;;;8.43;5.87;;;;;;;16.28;60.10;98915.50;4499904;31;20145;-88
2023/04/24 01:25:37;;;;;;;9.73;6.03;;;;;;;16.23;60.10;98915.81;4479540;32;21803;-88
2023/04/24 01:28:03;;;;;;;10.55;5.37;;;;;;;16.24;60.10;98901.75;4481590;31;20473;-89
2023/04/24 01:30:30;;;;;;;10.02;5.15;;;;;;;16.23;60.09;98897.44;4484346;32;20404;-88
2023/04/24 01:32:56;;;;;;;11.93;5.72;;;;;;;16.13;60.09;98909.53;4484825;31;20489;-87
2023/04/24 01:35:21;;;;;;;9.90;5.95;;;;;;;16.05;60.09;98910.97;4486767;31;20100;-88
2023/04/24 01:37:47;;;;;;;10.48;5.45;;;;;;;16.10;60.09;98901.88;4473578;31;20162;-88
2023/04/24 01:40:12;;;;;;;10.95;5.55;;;;;;;16.22;60.09;98890.50;4485656;31;20095;-88
2023/04/24 01:42:38;;;;;;;7.78;5.82;;;;;;;16.35;60.10;98900.19;4484022;31;20152;-88
2023/04/24 01:45:04;;;;;;;12.05;5.85;;;;;;;16.38;60.11;98887.69;4486940;32;20101;-89
2023/04/24 01:47:30;;;;;;;10.68;5.93;;;;;;;16.13;60.09;98888.53;4471061;31;20127;-89
2023/04/24 01:49:55;;;;;;;9.85;5.60;;;;;;;16.07;60.07;98901.22;4486719;31;20346;-89
2023/04/24 01:52:21;;;;;;;7.85;5.70;;;;;;;15.97;60.07;98898.38;4461185;31;20163;-89
2023/04/24 01:54:46;;;;;;;11.25;5.95;;;;;;;15.95;60.08;98888.00;4484176;32;20111;-91
2023/04/24 01:57:12;;;;;;;8.02;5.80;;;;;;;16.04;60.08;98868.13;4470873;31;20151;-90
2023/04/24 01:59:37;;;;;;;9.27;5.72;;;;;;;16.18;60.09;98867.19;4470652;32;24616;-89
2023/04/24 02:02:03;;;;;;;13.20;5.90;;;;;;;16.12;60.09;98865.84;4471246;31;20115;-89
2023/04/24 02:04:28;;;;;;;8.32;5.28;;;;;;;15.87;60.08;98866.69;4458156;32;20161;-89
2023/04/24 02:06:54;;;;;;;10.68;5.87;;;;;;;15.74;60.07;98864.97;4486322;32;25303;-90
2023/04/24 02:09:20;;;;;;;11.77;4.97;;;;;;;15.69;60.06;98862.66;4484014;32;20143;-89
2023/04/24 02:11:45;;;;;;;9.07;5.10;;;;;;;15.75;60.06;98867.50;4483072;32;20092;-90
2023/04/24 02:14:11;;;;;;;10.05;5.55;;;;;;;15.76;60.07;98857.84;4470835;32;20100;-90
2023/04/24 02:16:36;;;;;;;7.00;5.30;;;;;;;15.77;60.06;98859.50;4483545;32;20459;-89
2023/04/24 02:19:02;;;;;;;8.13;5.78;;;;;;;15.82;60.07;98857.41;4484221;32;20108;-89
2023/04/24 02:21:28;;;;;;;8.63;6.12;;;;;;;15.74;60.06;98863.19;4485213;31;20073;-89
2023/04/24 02:23:53;;;;;;;9.57;5.35;;;;;;;15.57;60.06;98868.69;4484064;32;20080;-89
2023/04/24 02:26:19;;;;;;;13.70;6.30;;;;;;;15.62;60.06;98864.87;4474102;32;20160;-89
2023/04/24 02:28:44;;;;;;;10.23;5.55;;;;;;;15.75;60.06;98864.03;4483773;32;20174;-89
2023/04/24 02:31:10;;;;;;;8.20;6.45;;;;;;;15.62;60.06;98864.03;4470757;31;20124;-90
2023/04/24 02:33:36;;;;;;;9.73;6.05;;;;;;;15.52;60.05;98847.16;4483737;32;20140;-89
2023/04/24 02:36:02;;;;;;;10.88;6.18;;;;;;;15.58;60.06;98845.00;4485033;31;20100;-89
2023/04/24 02:38:28;;;;;;;8.70;6.37;;;;;;;15.64;60.06;98847.22;4486250;31;20095;-89
2023/04/24 02:40:53;;;;;;;10.70;6.60;;;;;;;15.66;60.06;98844.50;4485966;31;20372;-89
2023/04/24 02:43:19;;;;;;;10.02;6.07;;;;;;;15.73;60.06;98842.31;4473070;31;20338;-89
2023/04/24 02:45:44;;;;;;;12.10;6.68;;;;;;;15.62;60.06;98850.91;4484544;31;20124;-90
2023/04/24 02:48:09;;;;;;;8.13;5.95;;;;;;;15.58;60.06;98847.63;4485366;31;20123;-89
2023/04/24 02:50:35;;;;;;;13.38;7.20;;;;;;;15.65;60.05;98843.66;4484006;31;20076;-88
2023/04/24 02:53:00;;;;;;;9.32;6.00;;;;;;;15.71;60.06;98844.19;4484046;32;20151;-89
2023/04/24 02:55:26;;;;;;;11.35;6.57;;;;;;;15.82;60.07;98836.41;4484930;31;20085;-89
2023/04/24 02:57:51;;;;;;;10.55;6.22;;;;;;;15.67;60.06;98837.47;4486981;31;20513;-89
2023/04/24 03:00:17;;;;;;;9.80;6.28;;;;;;;15.53;60.05;98835.72;4471010;31;20159;-90
2023/04/24 03:02:42;;;;;;;11.23;6.60;;;;;;;15.70;60.07;98839.88;4466770;31;20087;-90
2023/04/24 03:05:09;;;;;;;9.80;6.65;;;;;;;15.80;60.07;98827.81;4470301;32;20133;-89
2023/04/24 03:07:34;;;;;;;11.63;6.68;;;;;;;15.70;60.07;98825.00;4483475;32;20107;-89
2023/04/24 03:10:00;;;;;;;11.40;7.07;;;;;;;15.54;60.06;98819.87;4469982;31;20117;-89
2023/04/24 03:12:25;;;;;;;11.70;6.87;;;;;;;15.59;60.05;98825.69;4473768;32;20093;-90
2023/04/24 03:14:51;;;;;;;13.05;6.12;;;;;;;15.44;60.05;98823.25;4470260;32;20089;-90
2023/04/24 03:17:16;;;;;;;10.85;6.82;;;;;;;15.50;60.06;98821.03;4463150;31;20119;-89
2023/04/24 03:19:41;;;;;;;11.30;6.78;;;;;;;15.50;60.06;98826.28;4471082;31;20160;-90
2023/04/24 03:22:08;;;;;;;10.20;6.87;;;;;;;15.53;60.05;98827.87;4488362;31;20143;-89
2023/04/24 03:24:34;;;;;;;13.73;7.12;;;;;;;15.63;60.06;98821.09;4502283;31;20092;-89
2023/04/24 03:27:00;;;;;;;9.88;6.72;;;;;;;15.47;60.04;98828.28;4487949;31;20091;-89
2023/04/24 03:29:25;;;;;;;10.80;6.93;;;;;;;15.44;60.05;98823.25;4485237;31;20097;-89
2023/04/24 03:31:50;;;;;;;13.10;7.15;;;;;;;15.56;60.06;98815.38;4485238;32;20174;-89
2023/04/24 03:34:16;;;;;;;11.40;7.20;;;;;;;15.70;60.07;98817.13;4485382;32;20381;-88
2023/04/24 03:36:41;;;;;;;12.57;6.82;;;;;;;15.58;60.05;98813.53;4472824;32;20084;-89
2023/04/24 03:39:07;;;;;;;11.90;7.50;;;;;;;15.47;60.06;98821.25;4474856;31;20167;-89
2023/04/24 03:41:33;;;;;;;16.27;7.07;;;;;;;15.46;60.04;98818.75;4487804;31;20186;-90
2023/04/24 03:43:58;;;;;;;11.48;7.07;;;;;;;15.44;60.04;98808.34;4479940;31;20164;-89
2023/04/24 03:46:23;;;;;;;9.80;7.00;;;;;;;15.38;60.04;98811.37;4487495;31;20719;-89
2023/04/24 03:48:49;;;;;;;10.75;7.28;;;;;;;15.56;60.05;98799.66;4487276;31;20091;-90
2023/04/24 03:51:14;;;;;;;11.65;7.62;;;;;;;15.52;60.04;98795.56;4484665;32;20130;-88
2023/04/24 03:53:40;;;;;;;11.00;7.18;;;;;;;15.56;60.06;98798.81;4486168;31;20147;-88
2023/04/24 03:56:05;;;;;;;11.98;7.32;;;;;;;15.49;60.05;98794.91;4484664;32;20120;-89
2023/04/24 03:58:31;;;;;;;9.80;6.80;;;;;;;15.57;60.06;98798.69;4479646;32;20084;-89
2023/04/24 04:00:57;;;;;;;14.02;7.43;;;;;;;15.54;60.04;98795.44;4487351;31;20195;-89
2023/04/24 04:03:23;;;;;;;15.35;8.50;;;;;;;15.39;60.03;98805.19;4512462;31;20105;-90
2023/04/24 04:05:48;;;;;;;10.27;7.25;;;;;;;15.60;60.05;98811.63;4497184;31;20123;-93
2023/04/24 04:08:14;;;;;;;8.90;6.55;;;;;;;15.74;60.06;98820.37;4477814;31;20131;-92
2023/04/24 04:10:39;;;;;;;11.95;7.30;;;;;;;15.56;60.06;98818.00;4472493;32;20116;-91
2023/04/24 04:13:06;;;;;;;11.50;7.37;;;;;;;15.65;60.06;98804.31;4473866;32;20475;-91
2023/04/24 04:15:31;;;;;;;15.68;8.02;;;;;;;15.71;60.06;98803.06;4470626;32;20501;-90
2023/04/24 04:17:57;;;;;;;13.15;8.00;;;;;;;15.58;60.05;98797.78;4469505;31;20181;-90
2023/04/24 04:20:22;;;;;;;11.48;7.62;;;;;;;15.51;60.05;98811.37;4485215;31;20364;-90
2023/04/24 04:22:48;;;;;;;9.77;7.50;;;;;;;15.47;60.05;98821.25;4471861;32;20128;-90
2023/04/24 04:25:13;;;;;;;10.95;7.50;;;;;;;15.57;60.05;98822.31;4471886;32;20132;-89
2023/04/24 04:27:39;;;;;;;10.85;7.87;;;;;;;15.61;60.05;98817.72;4484803;32;20148;-90
2023/04/24 04:30:05;;;;;;;10.52;6.90;;;;;;;15.69;60.05;98820.69;4485100;32;20084;-89
2023/04/24 04:32:34;;;;;;;9.88;6.82;;;;;;;15.66;60.05;98820.91;4484980;32;20112;-92
2023/04/24 04:35:03;;;;;;;13.85;6.82;;;;;;;15.65;60.06;98812.19;4471416;32;20177;-89
2023/04/24 04:37:30;;;;;;;12.45;6.70;;;;;;;15.69;60.05;98811.97;4486498;31;20087;-88
2023/04/24 04:39:55;;;;;;;8.98;6.95;;;;;;;15.82;60.06;98807.56;4487193;31;20089;-89
2023/04/24 04:42:20;;;;;;;19.58;7.72;;;;;;;15.59;60.05;98811.75;4484722;31;20168;-90
2023/04/24 04:44:46;;;;;;;15.63;7.72;;;;;;;15.58;60.05;98820.53;4486081;31;20453;-90
2023/04/24 04:47:11;;;;;;;12.55;7.32;;;;;;;15.70;60.05;98811.03;4485490;31;23316;-89
2023/04/24 04:49:38;;;;;;;14.18;8.10;;;;;;;15.57;60.05;98805.72;4484683;32;20550;-89
2023/04/24 04:52:04;;;;;;;15.98;8.15;;;;;;;15.78;60.07;98808.72;4481879;31;20115;-89
2023/04/24 04:54:29;;;;;;;10.82;8.02;;;;;;;15.53;60.04;98799.84;4484196;32;20199;-89
2023/04/24 04:56:55;;;;;;;11.65;8.27;;;;;;;15.58;60.05;98807.41;4471703;31;20140;-89
2023/04/24 04:59:21;;;;;;;15.80;8.45;;;;;;;15.79;60.07;98802.53;4492534;31;20096;-89
2023/04/24 05:01:46;;;;;;;14.87;8.13;;;;;;;15.58;60.05;98808.28;4489443;31;20100;-89
2023/04/24 05:04:11;;;;;;;12.18;8.35;;;;;;;15.57;60.05;98800.47;4486876;31;21799;-89
2023/04/24 05:06:37;;;;;;;10.50;7.50;;;;;;;15.72;60.06;98798.66;4484444;31;20126;-88
2023/04/24 05:09:03;;;;;;;18.10;8.85;;;;;;;15.83;60.06;98807.44;4477189;31;20129;-89
2023/04/24 05:11:29;;;;;;;13.27;8.20;;;;;;;15.90;60.06;98805.25;4484223;31;20139;-88
2023/04/24 05:13:55;;;;;;;12.55;7.95;;;;;;;15.97;60.07;98798.63;4476389;31;20176;-89
2023/04/24 05:16:20;;;;;;;13.60;7.90;;;;;;;15.99;60.08;98799.38;4486377;31;20127;-89
2023/04/24 05:18:46;;;;;;;14.57;8.52;;;;;;;16.10;60.08;98794.22;4473353;32;20074;-88
2023/04/24 05:21:11;;;;;;;17.23;8.48;;;;;;;16.06;60.07;98800.62;4484062;31;20115;-87
2023/04/24 05:23:37;;;;;;;14.75;8.65;;;;;;;16.22;60.08;98803.84;4483857;32;20361;-89
2023/04/24 05:26:02;;;;;;;17.80;8.90;;;;;;;16.21;60.08;98801.34;4471390;31;20122;-89
2023/04/24 05:28:28;;;;;;;14.15;8.85;;;;;;;16.28;60.09;98806.06;4486356;31;20162;-90
2023/04/24 05:30:55;;;;;;;14.43;8.65;;;;;;;16.32;60.09;98806.66;4471070;32;20107;-89
2023/04/24 05:33:21;;;;;;;13.07;8.90;;;;;;;16.31;60.09;98802.38;4471017;32;20109;-89
2023/04/24 05:35:47;;;;;;;14.82;8.88;;;;;;;16.22;60.08;98803.84;4470884;31;20459;-90
2023/04/24 05:38:13;;;;;;;13.70;8.85;;;;;;;16.45;60.09;98807.50;4483929;32;20136;-88
2023/04/24 05:40:39;;;;;;;13.13;9.23;;;;;;;16.38;60.09;98802.78;4486028;31;20146;-89
2023/04/24 05:43:04;;;;;;;13.40;9.15;;;;;;;16.58;60.10;98800.44;4478441;31;20129;-90
2023/04/24 05:45:30;;;;;;;17.65;8.60;;;;;;;16.58;60.10;98800.44;4478489;31;20147;-89
2023/04/24 05:47:55;;;;;;;13.07;7.90;;;;;;;16.61;60.10;98804.63;4486591;31;20076;-90
2023/04/24 05:50:20;;;;;;;15.60;7.82;;;;;;;16.74;60.11;98797.56;4471754;31;20108;-88
2023/04/24 05:52:46;;;;;;;10.48;7.72;;;;;;;16.82;60.11;98791.75;4476707;31;20353;-89
2023/04/24 05:55:11;;;;;;;13.95;8.10;;;;;;;16.81;60.12;98796.19;4476934;32;20084;-89
2023/04/24 05:57:37;;;;;;;11.23;7.90;;;;;;;16.93;60.13;98806.72;4484032;32;20124;-89
2023/04/24 06:00:04;;;;;;;12.52;6.93;;;;;;;17.06;60.12;98807.53;4471428;32;20135;-89
2023/04/24 06:02:32;;;;;;;8.43;6.57;;;;;;;17.15;60.13;98814.72;4470478;32;20131;-87
2023/04/24 06:05:00;;;;;;;12.57;7.30;;;;;;;17.22;60.14;98804.59;4486989;31;20134;-89
2023/04/24 06:07:28;;;;;;;9.73;6.70;;;;;;;17.22;60.14;98804.59;4488186;31;20100;-90
2023/04/24 06:09:53;;;;;;;12.27;6.87;;;;;;;17.22;60.14;98807.22;4476292;31;20130;-90
2023/04/24 06:12:19;;;;;;;11.12;7.47;;;;;;;17.24;60.14;98810.56;4489826;31;20148;-89
2023/04/24 06:14:45;;;;;;;11.45;6.57;;;;;;;17.34;60.14;98803.69;4490758;31;20174;-89
2023/04/24 06:17:10;;;;;;;10.25;6.50;;;;;;;17.32;60.14;98813.50;4483616;32;20381;-89
2023/04/24 06:19:36;;;;;;;8.93;6.60;;;;;;;17.15;60.14;98805.03;4484131;31;20104;-89
2023/04/24 06:22:02;;;;;;;12.02;7.68;;;;;;;17.08;60.13;98797.72;4471191;32;20150;-89
2023/04/24 06:24:28;;;;;;;15.38;6.60;;;;;;;17.12;60.12;98809.69;4475963;31;20116;-89
2023/04/24 06:26:54;;;;;;;12.32;7.25;;;;;;;17.25;60.14;98801.72;4471455;32;20444;-89
2023/04/24 06:29:19;;;;;;;10.57;7.12;;;;;;;17.19;60.13;98801.22;4458104;31;20108;-89
2023/04/24 06:31:44;;;;;;;13.05;7.60;;;;;;;17.41;60.14;98808.38;4486800;31;20144;-90
2023/04/24 06:34:10;;;;;;;12.02;6.68;;;;;;;17.42;60.15;98804.78;4488939;31;20124;-89
2023/04/24 06:36:35;;;;;;;10.02;7.05;;;;;;;17.35;60.14;98805.37;4475845;31;20114;-90
2023/04/24 06:39:01;;;;;;;14.77;7.87;;;;;;;17.67;60.16;98805.56;4486704;31;20112;-90
2023/04/24 06:41:26;;;;;;;13.48;7.47;;;;;;;17.71;60.16;98797.34;4481280;32;20108;-90
2023/04/24 06:43:52;;;;;;;12.55;7.50;;;;;;;17.75;60.16;98803.22;4484024;32;20485;-89
2023/04/24 06:46:17;;;;;;;11.85;7.80;;;;;;;17.72;60.16;98796.37;4476131;31;20478;-90
2023/04/24 06:48:43;;;;;;;13.27;8.35;;;;;;;17.82;60.16;98788.63;4488600;31;20150;-90
2023/04/24 06:51:09;;;;;;;17.45;7.25;;;;;;;17.91;60.17;98794.97;4483817;32;20112;-90
2023/04/24 06:53:34;;;;;;;11.98;8.07;;;;;;;17.99;60.17;98798.72;4467327;31;20487;-89
2023/04/24 06:56:00;;;;;;;11.27;6.87;;;;;;;17.87;60.18;98798.81;4473133;31;20092;-90
2023/04/24 06:58:25;;;;;;;11.52;7.78;;;;;;;17.99;60.17;98787.34;4457599;32;20459;-90
2023/04/24 07:00:51;;;;;;;10.88;7.20;;;;;;;18.02;60.18;98795.84;4459357;32;20190;-91
2023/04/24 07:03:16;;;;;;;12.73;7.25;;;;;;;18.25;60.19;98794.03;4493285;31;20180;-90
2023/04/24 07:05:42;;;;;;;11.00;7.90;;;;;;;18.40;60.20;98790.19;4486116;31;20098;-90
2023/04/24 07:08:08;;;;;;;11.68;7.18;;;;;;;18.49;60.21;98790.44;4486062;31;20187;-90
2023/04/24 07:10:34;;;;;;;14.73;8.32;;;;;;;18.64;60.21;98795.31;4486182;31;20457;-90
2023/04/24 07:12:59;;;;;;;12.55;7.82;;;;;;;18.53;60.21;98789.22;4470508;32;20132;-90
2023/04/24 07:15:24;;;;;;;14.00;7.65;;;;;;;18.75;60.21;98793.62;4481953;32;20124;-90
2023/04/24 07:17:50;;;;;;;12.98;7.57;;;;;;;18.72;60.21;98784.19;4492258;31;20103;-90
2023/04/24 07:20:15;;;;;;;12.82;7.97;;;;;;;18.81;60.22;98782.59;4485437;31;20142;-90
2023/04/24 07:22:41;;;;;;;12.10;7.12;;;;;;;18.84;60.21;98783.16;4472608;31;20092;-90
2023/04/24 07:25:06;;;;;;;17.33;7.30;;;;;;;19.02;60.23;98773.75;4483897;31;20118;-90
2023/04/24 07:27:32;;;;;;;10.10;6.97;;;;;;;19.14;60.25;98774.53;4483374;32;20104;-90
2023/04/24 07:29:58;;;;;;;9.73;6.97;;;;;;;19.31;60.25;98771.34;4482954;32;20429;-90
2023/04/24 07:32:23;;;;;;;13.62;7.60;;;;;;;19.38;60.25;98776.09;4483027;32;20452;-90
2023/04/24 07:34:49;;;;;;;16.98;7.53;;;;;;;19.43;60.25;98773.94;4483107;32;20108;-90
2023/04/24 07:37:14;;;;;;;13.05;6.72;;;;;;;19.70;60.27;98776.91;4470309;32;20125;-90
2023/04/24 07:39:40;;;;;;;14.38;6.62;;;;;;;19.92;60.27;98762.72;4474204;31;20096;-90
2023/04/24 07:42:06;;;;;;;7.82;5.05;;;;;;;19.95;60.28;98782.75;4470386;32;20134;-91
2023/04/24 07:44:32;;;;;;;7.65;5.57;;;;;;;20.26;60.30;98784.41;4480881;32;20127;-90
2023/04/24 07:46:57;;;;;;;9.80;4.95;;;;;;;20.47;60.31;98773.78;4464607;31;20148;-91
2023/04/24 07:49:22;;;;;;;11.12;6.03;;;;;;;20.62;60.32;98779.53;4471549;32;20112;-90
2023/04/24 07:51:49;;;;;;;10.05;6.05;;;;;;;20.76;60.32;98771.19;4459542;32;20148;-91
2023/04/24 07:54:14;;;;;;;10.52;5.93;;;;;;;20.98;60.33;98773.59;4483986;31;20119;-91
2023/04/24 07:56:42;;;;;;;11.12;6.30;;;;;;;21.25;60.35;98772.09;4489605;31;20149;-90
2023/04/24 07:59:09;;;;;;;8.68;5.55;;;;;;;21.19;60.35;98768.16;4458633;31;20130;-91
2023/04/24 08:01:34;;;;;;;10.25;5.37;;;;;;;21.12;60.34;98773.19;4492428;31;20096;-91
2023/04/24 08:04:00;;;;;;;8.75;6.55;;;;;;;21.22;60.34;98772.34;4484877;31;20139;-88
2023/04/24 08:06:29;;;;;;;9.20;6.78;;;;;;;21.24;60.35;98765.97;4485239;31;20140;-91
2023/04/24 08:08:55;;;;;;;12.60;6.55;;;;;;;21.11;60.34;98760.94;4482289;32;20108;-91
2023/04/24 08:11:21;;;;;;;9.23;6.45;;;;;;;20.99;60.33;98762.03;4487862;31;20389;-91
2023/04/24 08:13:46;;;;;;;11.82;7.05;;;;;;;20.91;60.33;98761.06;4485604;31;21177;-91
2023/04/24 08:16:12;;;;;;;11.68;6.45;;;;;;;20.88;60.33;98761.34;4484930;32;20226;-90
2023/04/24 08:18:37;;;;;;;10.77;6.72;;;;;;;20.97;60.33;98763.16;4471927;32;20100;-91
2023/04/24 08:21:03;;;;;;;9.38;5.85;;;;;;;20.87;60.33;98767.59;4480757;31;25248;-88
2023/04/24 08:23:29;;;;;;;9.63;6.10;;;;;;;20.93;60.33;98772.34;4485726;31;20136;-89
2023/04/24 08:25:55;;;;;;;10.30;7.03;;;;;;;20.81;60.33;98761.03;4481964;31;20165;-89
2023/04/24 08:28:20;;;;;;;9.60;5.93;;;;;;;20.93;60.33;98765.25;4472172;32;20160;-89
2023/04/24 08:30:46;;;;;;;8.27;5.37;;;;;;;20.92;60.33;98760.09;4458731;32;20088;-88
2023/04/24 08:33:12;;;;;;;6.90;5.20;;;;;;;21.05;60.34;98761.47;4488851;31;20435;-88
2023/04/24 08:35:38;;;;;;;9.02;5.87;;;;;;;21.23;60.34;98763.41;4487169;31;20165;-88
2023/04/24 08:38:04;;;;;;;8.30;5.00;;;;;;;21.33;60.36;98753.72;4486205;31;20112;-89
2023/04/24 08:40:30;;;;;;;10.52;6.62;;;;;;;21.48;60.36;98762.84;4458609;32;20160;-89
2023/04/24 08:42:58;;;;;;;10.40;6.30;;;;;;;21.73;60.38;98756.13;4471960;32;20131;-88
2023/04/24 08:45:24;;;;;;;8.85;4.97;;;;;;;21.91;60.38;98765.00;4471882;32;20112;-90
2023/04/24 08:47:49;;;;;;;8.43;5.25;;;;;;;21.91;60.39;98758.84;4482311;32;20366;-89
2023/04/24 08:50:15;;;;;;;13.15;10.82;;;;;;;22.24;60.40;98757.47;4485091;32;20125;-89
2023/04/24 08:52:41;;;;;;;18.48;12.90;;;;;;;22.41;60.41;98755.88;4487544;32;20076;-89
2023/04/24 08:55:07;;;;;;;7.87;6.10;;;;;;;22.64;60.43;98760.59;4498965;32;20113;-89
2023/04/24 08:57:33;;;;;;;11.10;5.68;;;;;;;22.88;60.43;98752.09;4501076;31;20060;-90
2023/04/24 08:59:59;;;;;;;9.15;6.65;;;;;;;23.07;60.44;98752.94;4500708;31;20083;-89
2023/04/24 09:02:25;;;;;;;9.30;6.47;;;;;;;23.24;60.45;98737.00;4486326;32;20088;-90
2023/04/24 09:04:50;;;;;;;6.05;5.12;;;;;;;23.32;60.45;98746.84;4495229;31;20076;-90
2023/04/24 09:07:16;;;;;;;7.93;5.03;;;;;;;23.61;60.48;98748.41;4491789;31;20129;-89
2023/04/24 09:09:43;;;;;;;10.40;5.62;;;;;;;23.71;60.48;98747.31;4474207;31;20076;-89
2023/04/24 09:12:09;;;;;;;10.68;5.40;;;;;;;23.59;60.47;98743.25;4485653;31;20122;-89
2023/04/24 09:14:36;;;;;;;7.95;4.68;;;;;;;23.77;60.48;98736.06;4471645;32;20168;-89
2023/04/24 09:17:02;;;;;;;9.23;6.45;;;;;;;23.86;60.49;98740.41;4486000;31;20119;-89
2023/04/24 09:19:28;;;;;;;9.68;5.70;;;;;;;23.84;60.48;98731.75;4471119;32;20424;-89
2023/04/24 09:21:54;;;;;;;8.32;5.15;;;;;;;23.99;60.50;98740.00;4457658;32;20111;-89
2023/04/24 09:24:22;;;;;;;15.32;6.07;;;;;;;24.13;60.51;98731.44;4484739;32;20092;-89
2023/04/24 09:26:48;;;;;;;12.63;5.55;;;;;;;24.25;60.51;98728.47;4485815;32;20452;-89
2023/04/24 09:29:16;;;;;;;6.95;5.07;;;;;;;24.48;60.52;98730.41;4487134;31;20134;-89
2023/04/24 09:31:42;;;;;;;8.90;4.75;;;;;;;24.75;60.53;98733.78;4484463;32;20119;-89
2023/04/24 09:34:07;;;;;;;9.27;5.68;;;;;;;24.97;60.54;98724.34;4484356;31;20156;-89
2023/04/24 09:36:42;;;;;;;9.45;6.15;;;;;;;24.98;60.54;98723.34;4484467;32;20139;-89
2023/04/24 09:39:10;;;;;;;10.18;6.15;;;;;;;24.71;60.53;98714.66;4482256;31;20096;-88
2023/04/24 09:41:36;;;;;;;9.88;6.20;;;;;;;24.62;60.53;98725.47;4484694;32;20141;-89
2023/04/24 09:44:14;;;;;;;11.73;6.30;;;;;;;24.52;60.53;98714.94;4458406;31;20435;-89
2023/04/24 09:46:41;;;;;;;9.43;6.90;;;;;;;24.30;60.51;98715.53;4484698;32;20105;-89
2023/04/24 09:49:13;;;;;;;8.77;6.15;;;;;;;24.38;60.52;98716.44;4471443;31;20092;-89
2023/04/24 09:51:40;;;;;;;9.55;6.22;;;;;;;24.49;60.52;98717.94;4466735;31;20523;-90
2023/04/24 09:54:15;;;;;;;12.30;6.10;;;;;;;24.58;60.52;98714.28;4487042;31;20088;-89
2023/04/24 09:56:50;;;;;;;7.53;5.47;;;;;;;24.47;60.52;98706.63;4491236;31;20130;-89
2023/04/24 09:59:17;;;;;;;9.30;5.30;;;;;;;24.51;60.53;98710.63;4471152;32;20436;-89
2023/04/24 10:01:44;;;;;;;7.55;4.97;;;;;;;24.65;60.53;98703.84;4481524;31;20152;-89
2023/04/24 10:04:18;;;;;;;7.82;5.65;;;;;;;24.64;60.53;98705.69;4487130;31;20155;-89
2023/04/24 10:06:45;;;;;;;8.98;6.35;;;;;;;24.80;60.54;98710.16;4486833;31;20139;-89
2023/04/24 10:09:13;;;;;;;7.47;6.55;;;;;;;24.76;60.55;98706.19;4461408;32;20176;-89
2023/04/24 10:11:44;;;;;;;8.13;5.55;;;;;;;24.83;60.54;98717.00;4471451;31;20084;-88
2023/04/24 10:14:10;;;;;;;7.60;6.22;;;;;;;24.78;60.54;98705.00;4475295;32;20171;-89
2023/04/24 10:16:36;;;;;;;10.48;6.70;;;;;;;24.74;60.54;98714.31;4467147;32;20096;-89
2023/04/24 10:19:02;;;;;;;8.90;5.72;;;;;;;24.71;60.54;98716.50;4484124;32;20106;-89
2023/04/24 10:21:27;;;;;;;11.52;6.45;;;;;;;24.68;60.53;98709.66;4467328;31;20132;-89
2023/04/24 10:23:53;;;;;;;10.25;5.85;;;;;;;24.34;60.52;98715.06;4477776;31;20115;-89
2023/04/24 10:26:19;;;;;;;8.55;5.65;;;;;;;24.15;60.50;98710.84;4469804;32;39440;-89
2023/04/24 10:28:47;;;;;;;11.98;6.22;;;;;;;24.24;60.51;98706.37;4478309;31;20088;-91
2023/04/24 10:31:13;;;;;;;8.80;6.00;;;;;;;24.26;60.51;98709.69;4486791;31;20080;-89
2023/04/24 10:33:43;;;;;;;8.18;5.90;;;;;;;24.41;60.51;98702.78;4487279;31;20131;-89
2023/04/24 10:36:09;;;;;;;8.13;6.25;;;;;;;24.56;60.52;98707.47;4471321;32;20148;-89
2023/04/24 10:38:35;;;;;;;8.20;5.55;;;;;;;24.55;60.52;98703.16;4471346;31;20132;-89
2023/04/24 10:41:08;;;;;;;9.38;6.60;;;;;;;24.61;60.53;98705.19;4494879;31;20084;-89
2023/04/24 10:43:34;;;;;;;9.70;5.72;;;;;;;24.56;60.52;98700.31;4487427;32;20084;-89
2023/04/24 10:46:06;;;;;;;7.32;5.62;;;;;;;24.33;60.52;98701.91;4472185;31;20104;-89
2023/04/24 10:48:32;;;;;;;11.15;6.45;;;;;;;24.25;60.51;98696.56;4490321;31;20155;-88
2023/04/24 10:50:57;;;;;;;9.18;6.37;;;;;;;24.10;60.50;98701.66;4483923;32;20096;-89
2023/04/24 10:53:27;;;;;;;9.32;6.45;;;;;;;24.05;60.50;98704.78;4483981;32;20469;-90
2023/04/24 10:56:05;;;;;;;9.43;5.85;;;;;;;24.11;60.51;98701.47;4471731;31;20153;-90
2023/04/24 10:58:39;;;;;;;7.85;6.40;;;;;;;24.32;60.52;98682.47;4489378;31;20376;-89
2023/04/24 11:01:05;;;;;;;8.60;5.82;;;;;;;24.41;60.51;98683.34;4474452;31;20685;-89
2023/04/24 11:03:32;;;;;;;10.77;5.85;;;;;;;24.53;60.53;98681.19;4481375;31;20443;-89
2023/04/24 11:06:04;;;;;;;10.77;4.55;;;;;;;24.79;60.53;98682.72;4484986;32;20096;-89
2023/04/24 11:08:38;;;;;;;6.20;4.20;;;;;;;24.78;60.54;98678.41;4483467;31;20084;-89
2023/04/24 11:11:08;;;;;;;4.70;3.45;;;;;;;24.80;60.54;98671.06;4478201;31;20744;-88
2023/04/24 11:13:55;;;;;;;3.53;2.80;;;;;;;24.91;60.55;98667.28;4486020;31;20134;-88
2023/04/24 11:16:32;;;;;;;4.55;3.20;;;;;;;24.67;60.54;98670.75;4484070;32;20168;-89
2023/04/24 11:19:08;;;;;;;6.37;2.55;;;;;;;24.40;60.52;98668.38;4489835;31;20136;-87
2023/04/24 11:22:03;;;;;;;4.72;2.78;;;;;;;24.27;60.51;98665.31;4486246;31;20080;-88
2023/04/24 11:24:39;;;;;;;4.57;2.58;;;;;;;24.05;60.51;98669.41;4492106;31;20201;-89